Time;durP1;ratioP1;P1;durP2;ratioP2;P2;SDS_P1;SDS_P2;PMS_P1;PMS_P2;Temp;Humidity;BMP_temperature;BMP_pressure;BME280_temperature;BME280_humidity;BME280_pressure;Samples;Min_cycle;Max_cycle;Signal;HPM_P1;HPM_P2
2023/02/14 00:00:09;;;;;;;35.05;23.65;;;7.40;99.90;;;;;;5132820;27;20069;-58
2023/02/14 00:02:34;;;;;;;33.83;23.10;;;7.40;99.90;;;;;;5096862;28;20382;-57
2023/02/14 00:05:00;;;;;;;32.58;22.35;;;7.40;99.90;;;;;;5132810;28;20019;-55
2023/02/14 00:07:26;;;;;;;30.48;20.92;;;7.30;99.90;;;;;;5132759;28;20019;-55
2023/02/14 00:09:51;;;;;;;30.48;22.10;;;7.30;99.90;;;;;;5132796;28;20172;-56
2023/02/14 00:12:17;;;;;;;35.50;23.08;;;7.30;99.90;;;;;;5132954;28;20027;-58
2023/02/14 00:17:27;;;;;;;31.42;21.50;;;7.30;99.90;;;;;;5133137;28;20035;-58
2023/02/14 00:19:52;;;;;;;32.60;20.98;;;7.20;99.90;;;;;;5132673;27;20023;-57
2023/02/14 00:22:18;;;;;;;30.60;20.40;;;7.20;99.90;;;;;;5132884;28;20031;-54
2023/02/14 00:24:44;;;;;;;35.25;24.95;;;7.20;99.90;;;;;;5132956;28;20053;-60
2023/02/14 00:27:10;;;;;;;36.67;24.05;;;7.20;99.90;;;;;;5132776;28;20023;-53
2023/02/14 00:29:35;;;;;;;30.55;21.92;;;7.10;99.90;;;;;;5116699;27;20039;-53
2023/02/14 00:32:01;;;;;;;31.20;21.02;;;7.20;99.90;;;;;;5145587;27;20179;-56
2023/02/14 00:34:27;;;;;;;36.13;24.23;;;7.20;99.90;;;;;;5147285;27;20182;-60
2023/02/14 00:36:53;;;;;;;28.80;21.10;;;7.10;99.90;;;;;;5145322;27;20102;-57
2023/02/14 00:39:19;;;;;;;31.92;21.48;;;7.10;99.90;;;;;;5147012;27;20094;-55
2023/02/14 00:41:45;;;;;;;32.42;21.33;;;7.10;99.90;;;;;;5156033;27;20030;-56
2023/02/14 00:44:12;;;;;;;30.35;19.35;;;7.20;99.90;;;;;;5157470;27;20035;-58
2023/02/14 00:46:38;;;;;;;31.35;20.60;;;7.20;99.90;;;;;;5154171;27;20053;-55
2023/02/14 00:49:04;;;;;;;33.10;21.45;;;7.10;99.90;;;;;;5146462;27;20091;-57
2023/02/14 00:51:31;;;;;;;29.70;19.17;;;7.10;99.90;;;;;;5146125;27;20019;-59
2023/02/14 00:53:57;;;;;;;29.40;19.92;;;7.00;99.90;;;;;;5147041;27;20072;-58
2023/02/14 00:56:23;;;;;;;28.92;20.40;;;7.10;99.90;;;;;;5145422;27;20031;-56
2023/02/14 00:58:49;;;;;;;28.60;19.38;;;7.00;99.90;;;;;;5146106;27;20039;-57
2023/02/14 01:01:17;;;;;;;29.25;18.88;;;7.10;99.90;;;;;;5146702;27;20381;-60
2023/02/14 01:03:42;;;;;;;28.27;18.95;;;7.10;99.90;;;;;;5147124;27;20011;-56
2023/02/14 01:06:08;;;;;;;28.95;19.17;;;7.20;99.90;;;;;;5145933;27;20076;-54
2023/02/14 01:08:34;;;;;;;34.72;19.20;;;7.10;99.90;;;;;;5145542;27;20033;-56
2023/02/14 01:11:18;;;;;;;24.55;17.88;;;7.10;99.90;;;;;;5146958;27;20435;-55
2023/02/14 01:13:45;;;;;;;28.65;18.13;;;7.00;99.90;;;;;;5145390;27;20023;-55
2023/02/14 01:16:14;;;;;;;29.75;18.48;;;7.00;99.90;;;;;;5145965;27;20031;-54
2023/02/14 01:18:41;;;;;;;26.88;18.02;;;6.90;99.90;;;;;;5146700;27;20102;-54
2023/02/14 01:21:12;;;;;;;30.80;17.98;;;6.90;99.90;;;;;;5144947;27;20546;-53
2023/02/14 01:23:37;;;;;;;27.63;18.13;;;6.90;99.90;;;;;;5142005;27;20023;-55
2023/02/14 01:26:07;;;;;;;23.85;15.75;;;6.90;99.90;;;;;;5135645;27;20039;-56
2023/02/14 01:28:34;;;;;;;24.58;16.90;;;6.90;99.90;;;;;;5135670;27;20027;-53
2023/02/14 01:31:27;;;;;;;24.50;17.05;;;6.90;99.90;;;;;;5135477;27;20034;-57
2023/02/14 01:33:53;;;;;;;25.58;15.57;;;6.90;99.90;;;;;;5133410;27;20038;-56
2023/02/14 01:36:23;;;;;;;29.77;17.33;;;6.90;99.90;;;;;;5135483;27;20038;-55
2023/02/14 01:38:55;;;;;;;26.75;16.30;;;7.00;99.90;;;;;;5135880;27;20440;-57
2023/02/14 01:41:22;;;;;;;21.60;14.90;;;6.90;99.90;;;;;;5133425;27;20525;-55
2023/02/14 01:44:03;;;;;;;23.33;15.68;;;6.90;99.90;;;;;;5135197;27;20027;-58
2023/02/14 01:46:31;;;;;;;22.42;15.13;;;6.90;99.90;;;;;;5078258;28;20163;-55
2023/02/14 01:49:08;;;;;;;23.77;16.10;;;6.90;99.90;;;;;;5112272;28;20506;-59
2023/02/14 01:51:39;;;;;;;24.65;16.77;;;6.80;99.90;;;;;;5112346;28;20035;-53
2023/02/14 01:54:06;;;;;;;23.00;15.30;;;6.80;99.90;;;;;;5112225;28;20035;-58
2023/02/14 01:56:40;;;;;;;25.00;15.50;;;6.90;99.90;;;;;;5112267;28;20063;-58
2023/02/14 01:59:11;;;;;;;21.20;14.55;;;6.90;99.90;;;;;;5112030;28;20126;-58
2023/02/14 02:01:38;;;;;;;22.25;15.75;;;6.90;99.90;;;;;;5111995;28;20434;-54
2023/02/14 02:04:18;;;;;;;22.50;14.43;;;6.90;99.90;;;;;;5111945;28;20031;-55
2023/02/14 02:06:50;;;;;;;21.45;14.68;;;6.90;99.90;;;;;;5078989;28;20040;-54
2023/02/14 02:09:25;;;;;;;21.38;14.52;;;6.80;99.90;;;;;;5111941;28;20040;-57
2023/02/14 02:11:50;;;;;;;22.55;13.77;;;6.80;99.90;;;;;;5111808;28;20027;-56
2023/02/14 02:14:19;;;;;;;21.92;15.13;;;6.80;99.90;;;;;;5111569;28;20031;-57
2023/02/14 02:17:00;;;;;;;20.00;14.40;;;6.90;99.90;;;;;;5116594;27;20031;-57
2023/02/14 02:19:56;;;;;;;20.63;14.20;;;6.90;99.90;;;;;;5134587;27;20019;-55
2023/02/14 02:22:37;;;;;;;20.42;14.63;;;6.90;99.90;;;;;;5134809;27;20385;-57
2023/02/14 02:25:17;;;;;;;17.73;13.35;;;7.00;99.90;;;;;;5134937;27;20102;-57
2023/02/14 02:27:57;;;;;;;21.20;13.63;;;6.90;99.90;;;;;;5134660;27;20106;-53
2023/02/14 02:30:38;;;;;;;21.30;13.57;;;6.90;99.90;;;;;;5133590;27;20171;-56
2023/02/14 02:33:25;;;;;;;20.33;13.05;;;6.90;99.90;;;;;;5134777;27;20117;-58
2023/02/14 02:36:03;;;;;;;20.65;14.15;;;6.90;99.90;;;;;;5134442;27;20072;-52
2023/02/14 02:38:50;;;;;;;22.42;14.88;;;6.90;99.90;;;;;;5115007;27;20087;-54
2023/02/14 02:41:40;;;;;;;20.65;13.57;;;6.90;99.90;;;;;;5114947;27;20114;-58
2023/02/14 02:44:05;;;;;;;20.05;14.35;;;6.90;99.90;;;;;;5134448;27;20046;-52
2023/02/14 02:46:47;;;;;;;20.58;14.32;;;6.90;99.90;;;;;;5114747;27;20385;-55
2023/02/14 02:53:02;;;;;;;20.80;12.63;;;6.80;99.90;;;;;;5134025;27;20077;-54
2023/02/14 02:58:35;;;;;;;15.82;11.93;;;6.80;99.90;;;;;;5134021;27;20079;-54
2023/02/14 03:01:07;;;;;;;19.15;12.55;;;6.90;99.90;;;;;;5133580;27;20126;-55
2023/02/14 03:06:19;;;;;;;22.23;13.23;;;6.80;99.90;;;;;;5133767;27;20038;-54
2023/02/14 03:08:45;;;;;;;18.00;12.02;;;6.80;99.90;;;;;;5133925;27;20031;-58
2023/02/14 03:11:12;;;;;;;19.50;12.85;;;6.80;99.90;;;;;;5133856;27;20027;-54
2023/02/14 03:13:59;;;;;;;18.05;12.88;;;6.70;99.90;;;;;;5133551;27;20027;-57
2023/02/14 03:16:35;;;;;;;19.60;12.30;;;6.70;99.90;;;;;;5133534;27;20027;-55
2023/02/14 03:22:28;;;;;;;15.95;10.75;;;6.70;99.90;;;;;;5133626;27;20172;-56
2023/02/14 03:25:15;;;;;;;16.33;11.65;;;6.70;99.90;;;;;;5133745;27;20019;-54
2023/02/14 03:27:46;;;;;;;18.48;11.63;;;6.70;99.90;;;;;;5069532;28;20044;-57
2023/02/14 03:30:42;;;;;;;18.70;12.40;;;6.70;99.90;;;;;;5069835;28;20492;-56
2023/02/14 03:33:17;;;;;;;21.13;10.35;;;6.70;99.90;;;;;;5069860;28;20480;-56
2023/02/14 03:36:05;;;;;;;14.38;10.43;;;6.70;99.90;;;;;;5069733;28;20032;-57
2023/02/14 03:38:38;;;;;;;16.10;11.38;;;6.70;99.90;;;;;;5036155;28;20056;-60
2023/02/14 03:41:10;;;;;;;15.60;11.60;;;6.70;99.90;;;;;;5069909;28;20032;-57
2023/02/14 03:43:46;;;;;;;16.02;11.50;;;6.80;99.90;;;;;;5070657;28;20029;-53
2023/02/14 03:46:27;;;;;;;18.00;11.40;;;6.80;99.90;;;;;;5072354;28;20082;-57
2023/02/14 03:48:56;;;;;;;17.60;10.17;;;6.90;99.90;;;;;;5069674;28;20036;-54
2023/02/14 03:51:24;;;;;;;16.50;10.32;;;6.90;99.90;;;;;;5069690;28;20305;-57
2023/02/14 03:53:56;;;;;;;13.88;10.93;;;6.90;99.90;;;;;;5069693;28;20059;-53
2023/02/14 03:56:30;;;;;;;;;;;6.90;99.90;;;;;;5071143;28;20070;-54
2023/02/14 03:58:59;;;;;;;13.80;9.82;;;7.00;99.90;;;;;;5036324;28;19920;-54
2023/02/14 04:01:54;;;;;;;14.43;9.65;;;6.90;99.90;;;;;;5070365;28;20047;-53
2023/02/14 04:04:23;;;;;;;12.63;9.63;;;6.90;99.90;;;;;;5048832;28;20083;-56
2023/02/14 04:06:49;;;;;;;12.63;9.65;;;6.90;99.90;;;;;;5078926;28;20045;-53
2023/02/14 04:09:15;;;;;;;12.25;9.43;;;6.80;99.90;;;;;;5073734;28;20049;-58
2023/02/14 04:11:41;;;;;;;14.00;9.77;;;6.80;99.90;;;;;;5073650;28;20035;-54
2023/02/14 04:14:07;;;;;;;18.77;11.55;;;6.80;99.90;;;;;;5073212;28;20036;-51
2023/02/14 04:19:21;;;;;;;15.60;10.20;;;6.80;99.90;;;;;;5073525;28;20475;-54
2023/02/14 04:19:22;;;;;;;14.15;10.05;;;6.70;99.90;;;;;;5073587;28;20040;-56
2023/02/14 04:21:48;;;;;;;15.40;9.70;;;6.70;99.90;;;;;;5073503;28;20036;-54
2023/02/14 04:24:14;;;;;;;16.00;10.55;;;6.70;99.90;;;;;;5073485;28;20040;-58
2023/02/14 04:26:52;;;;;;;20.58;10.27;;;6.80;99.90;;;;;;5073135;28;20116;-58
2023/02/14 04:29:20;;;;;;;14.70;10.00;;;6.80;99.90;;;;;;5073096;28;20073;-57
2023/02/14 04:31:46;;;;;;;13.63;10.15;;;6.80;99.90;;;;;;5073188;28;20036;-55
2023/02/14 04:34:12;;;;;;;15.23;9.98;;;6.80;99.90;;;;;;5056383;28;20086;-58
2023/02/14 04:36:38;;;;;;;14.23;10.00;;;6.90;99.90;;;;;;5072959;28;20028;-57
2023/02/14 04:39:03;;;;;;;16.20;10.23;;;6.80;99.90;;;;;;5073093;28;20483;-53
2023/02/14 04:41:29;;;;;;;13.80;9.68;;;6.90;99.90;;;;;;5101262;28;20031;-53
2023/02/14 04:43:55;;;;;;;13.40;9.57;;;6.80;99.90;;;;;;5116200;28;20070;-58
2023/02/14 04:46:21;;;;;;;17.52;10.65;;;6.80;99.90;;;;;;5115959;27;20103;-53
2023/02/14 04:48:46;;;;;;;15.63;10.48;;;6.90;99.90;;;;;;5115757;28;20152;-58
2023/02/14 04:51:12;;;;;;;13.43;10.18;;;6.90;99.90;;;;;;5117235;28;20031;-56
2023/02/14 04:53:39;;;;;;;13.00;9.65;;;6.90;99.90;;;;;;5117053;28;20032;-57
2023/02/14 04:56:06;;;;;;;14.18;10.00;;;6.90;99.90;;;;;;5114943;28;20043;-55
2023/02/14 04:58:32;;;;;;;13.90;9.60;;;6.90;99.90;;;;;;5121073;27;20471;-54
2023/02/14 05:00:58;;;;;;;15.32;10.18;;;7.00;99.90;;;;;;5157995;27;20041;-54
2023/02/14 05:03:24;;;;;;;12.57;9.13;;;7.00;99.90;;;;;;5158031;27;20408;-56
2023/02/14 05:05:49;;;;;;;16.13;10.43;;;7.00;99.90;;;;;;5157985;27;20079;-55
2023/02/14 05:08:15;;;;;;;13.43;9.80;;;7.00;99.90;;;;;;5158057;27;20023;-55
2023/02/14 05:10:41;;;;;;;15.88;10.63;;;7.00;99.90;;;;;;5157805;27;20493;-54
2023/02/14 05:13:06;;;;;;;15.38;11.13;;;7.00;99.90;;;;;;5158119;27;20412;-58
2023/02/14 05:15:32;;;;;;;19.23;11.88;;;7.00;99.90;;;;;;5155975;27;20114;-53
2023/02/14 05:18:00;;;;;;;15.70;10.68;;;6.90;99.90;;;;;;5157553;27;20019;-54
2023/02/14 05:20:29;;;;;;;15.05;9.85;;;7.00;99.90;;;;;;5157867;27;20478;-60
2023/02/14 05:22:55;;;;;;;15.95;10.52;;;7.00;99.90;;;;;;5155692;27;20035;-54
2023/02/14 05:25:21;;;;;;;15.07;9.23;;;7.00;99.90;;;;;;5157783;27;20069;-57
2023/02/14 05:27:47;;;;;;;13.73;10.23;;;7.00;99.90;;;;;;5138262;27;20030;-51
2023/02/14 05:30:13;;;;;;;13.10;9.55;;;7.00;99.90;;;;;;5157477;27;20470;-57
2023/02/14 05:32:39;;;;;;;14.18;9.68;;;7.00;99.90;;;;;;5138410;27;20039;-60
2023/02/14 05:35:05;;;;;;;16.52;9.85;;;7.00;99.90;;;;;;5155470;27;20045;-57
2023/02/14 05:37:30;;;;;;;14.02;9.88;;;6.90;99.90;;;;;;5121120;27;20046;-54
2023/02/14 05:39:56;;;;;;;14.45;10.82;;;6.90;99.90;;;;;;5157557;27;20026;-55
2023/02/14 05:42:22;;;;;;;14.77;10.88;;;6.90;99.90;;;;;;5120738;27;20034;-52
2023/02/14 05:44:48;;;;;;;15.75;10.32;;;7.00;99.90;;;;;;5157133;27;20090;-52
2023/02/14 05:47:14;;;;;;;14.00;10.30;;;7.00;99.90;;;;;;5157208;27;20106;-59
2023/02/14 05:49:39;;;;;;;15.82;10.68;;;7.00;99.90;;;;;;5157407;27;20034;-53
2023/02/14 05:52:05;;;;;;;15.05;9.75;;;7.10;99.90;;;;;;5157674;27;20734;-54
2023/02/14 05:54:31;;;;;;;15.50;10.52;;;7.00;99.90;;;;;;5157011;27;20030;-58
2023/02/14 05:56:56;;;;;;;15.93;10.43;;;6.90;99.90;;;;;;5137654;27;20042;-59
2023/02/14 05:59:22;;;;;;;19.77;13.82;;;7.00;99.90;;;;;;5157156;27;20050;-56
2023/02/14 06:01:48;;;;;;;28.02;19.90;;;7.00;99.90;;;;;;5157152;27;20091;-57
2023/02/14 06:04:14;;;;;;;22.65;18.77;;;7.00;99.90;;;;;;5157043;27;20101;-54
2023/02/14 06:06:39;;;;;;;17.58;13.82;;;7.00;99.90;;;;;;5154855;27;20026;-56
2023/02/14 06:09:05;;;;;;;14.75;10.95;;;7.00;99.90;;;;;;5156581;27;20022;-59
2023/02/14 06:11:31;;;;;;;44.70;28.65;;;7.00;99.90;;;;;;5156719;27;20491;-54
2023/02/14 06:13:57;;;;;;;20.65;15.85;;;7.00;99.90;;;;;;5137470;27;20039;-55
2023/02/14 06:16:22;;;;;;;18.55;12.88;;;7.00;99.90;;;;;;5156903;27;20029;-57
2023/02/14 06:18:48;;;;;;;18.33;11.93;;;7.00;99.90;;;;;;5156766;27;20031;-55
2023/02/14 06:21:14;;;;;;;16.77;11.35;;;7.00;99.90;;;;;;5156612;27;20023;-56
2023/02/14 06:23:39;;;;;;;15.77;11.93;;;7.10;99.90;;;;;;5156381;27;20062;-54
2023/02/14 06:26:05;;;;;;;17.33;12.02;;;7.00;99.90;;;;;;5156339;27;20026;-55
2023/02/14 06:28:31;;;;;;;14.68;11.02;;;7.10;99.90;;;;;;5135980;27;20083;-59
2023/02/14 06:30:57;;;;;;;16.13;11.75;;;7.00;99.90;;;;;;5156237;27;20027;-52
2023/02/14 06:33:22;;;;;;;18.00;12.00;;;7.10;99.90;;;;;;5137141;27;20067;-54
2023/02/14 06:35:48;;;;;;;18.05;12.18;;;7.00;99.90;;;;;;5154495;27;20503;-56
2023/02/14 06:38:14;;;;;;;20.10;14.77;;;7.10;99.90;;;;;;5156374;27;20098;-57
2023/02/14 06:40:39;;;;;;;15.55;11.80;;;7.10;99.90;;;;;;5156476;27;20476;-59
2023/02/14 06:43:05;;;;;;;18.90;12.90;;;7.10;99.90;;;;;;5156052;27;20118;-54
2023/02/14 06:45:31;;;;;;;16.95;12.88;;;7.20;99.90;;;;;;5119804;27;20045;-55
2023/02/14 06:47:58;;;;;;;20.77;14.98;;;7.20;99.90;;;;;;5155842;27;20106;-54
2023/02/14 06:50:24;;;;;;;22.90;16.63;;;7.20;99.90;;;;;;5156112;27;20039;-53
2023/02/14 06:52:50;;;;;;;18.90;16.63;;;7.20;99.90;;;;;;5156342;27;20075;-54
2023/02/14 06:55:16;;;;;;;28.42;17.27;;;7.20;99.90;;;;;;5137779;27;20031;-56
2023/02/14 06:57:43;;;;;;;29.02;19.13;;;7.20;99.90;;;;;;5134999;27;20027;-54
2023/02/14 07:00:09;;;;;;;37.15;20.00;;;7.20;99.90;;;;;;5134870;27;20108;-58
2023/02/14 07:02:35;;;;;;;25.17;18.13;;;7.20;99.90;;;;;;5135126;27;20027;-54
2023/02/14 07:05:01;;;;;;;18.52;12.85;;;7.20;99.90;;;;;;5135105;27;20043;-57
2023/02/14 07:07:26;;;;;;;15.65;11.43;;;7.20;99.90;;;;;;5134910;27;20098;-54
2023/02/14 07:09:52;;;;;;;16.77;12.38;;;7.20;99.90;;;;;;5134808;27;20031;-58
2023/02/14 07:12:18;;;;;;;17.23;11.73;;;7.20;99.90;;;;;;5115519;27;20043;-54
2023/02/14 07:14:43;;;;;;;21.17;14.05;;;7.20;99.90;;;;;;5134952;27;20027;-54
2023/02/14 07:17:09;;;;;;;22.45;15.38;;;7.20;99.90;;;;;;5098707;27;20088;-59
2023/02/14 07:19:35;;;;;;;16.70;10.95;;;7.10;99.90;;;;;;5134867;27;20075;-53
2023/02/14 07:22:01;;;;;;;24.60;16.30;;;7.10;99.90;;;;;;5135068;27;20439;-53
2023/02/14 07:24:26;;;;;;;26.63;17.42;;;7.10;99.90;;;;;;5134749;27;20031;-57
2023/02/14 07:26:52;;;;;;;23.85;17.45;;;7.20;99.90;;;;;;5115503;27;20027;-55
2023/02/14 07:29:18;;;;;;;19.08;14.65;;;7.20;99.90;;;;;;5134188;27;20033;-56
2023/02/14 07:31:43;;;;;;;17.40;13.68;;;7.20;99.90;;;;;;5115370;27;20046;-56
2023/02/14 07:34:09;;;;;;;35.55;21.25;;;7.20;99.90;;;;;;5134412;27;20034;-57
2023/02/14 07:36:37;;;;;;;45.35;26.05;;;7.20;99.90;;;;;;5134206;27;20027;-55
2023/02/14 07:39:03;;;;;;;44.00;21.02;;;7.30;99.90;;;;;;5134621;27;20019;-54
2023/02/14 07:41:29;;;;;;;43.00;26.92;;;7.20;99.90;;;;;;5134084;27;20370;-55
2023/02/14 07:43:55;;;;;;;28.42;17.80;;;7.20;99.90;;;;;;5134224;27;20027;-54
2023/02/14 07:46:20;;;;;;;32.47;20.73;;;7.20;99.90;;;;;;5134005;27;20027;-54
2023/02/14 07:48:47;;;;;;;28.52;18.25;;;7.20;99.90;;;;;;5134245;28;20028;-54
2023/02/14 07:51:13;;;;;;;30.17;20.60;;;7.30;99.90;;;;;;5134410;27;20122;-58
2023/02/14 07:53:40;;;;;;;33.58;19.95;;;7.30;99.90;;;;;;5126344;27;20107;-59
2023/02/14 07:56:06;;;;;;;29.73;21.98;;;7.30;99.90;;;;;;5113541;28;20038;-56
2023/02/14 07:58:31;;;;;;;26.10;18.55;;;7.20;99.90;;;;;;5113200;28;20024;-54
2023/02/14 08:00:58;;;;;;;22.48;15.45;;;7.20;99.90;;;;;;5095029;28;20052;-55
2023/02/14 08:03:24;;;;;;;22.10;14.77;;;7.30;99.90;;;;;;5114031;28;20039;-56
2023/02/14 08:05:55;;;;;;;14.38;11.20;;;7.30;99.90;;;;;;5113601;28;20061;-55
2023/02/14 08:08:24;;;;;;;20.58;14.32;;;7.10;99.90;;;;;;5114287;28;20076;-54
2023/02/14 08:10:50;;;;;;;19.50;13.82;;;7.20;99.90;;;;;;5113452;28;20457;-54
2023/02/14 08:13:15;;;;;;;16.65;12.30;;;7.30;99.90;;;;;;5113453;28;20066;-54
2023/02/14 08:18:26;;;;;;;18.55;11.38;;;7.20;99.90;;;;;;5130929;28;20108;-56
2023/02/14 08:20:52;;;;;;;26.17;15.43;;;7.10;99.90;;;;;;5114910;28;20039;-55
2023/02/14 08:23:19;;;;;;;17.13;10.32;;;7.20;99.90;;;;;;5134160;28;20023;-59
2023/02/14 08:25:47;;;;;;;25.25;15.50;;;7.00;99.90;;;;;;5133915;27;20035;-56
2023/02/14 08:28:13;;;;;;;18.65;13.93;;;7.10;99.90;;;;;;5133810;27;20026;-55
2023/02/14 08:30:40;;;;;;;18.98;13.05;;;7.20;99.90;;;;;;5128908;27;20042;-56
2023/02/14 08:33:06;;;;;;;20.88;13.57;;;7.30;99.90;;;;;;5122079;28;20048;-55
2023/02/14 08:35:32;;;;;;;21.63;17.25;;;7.30;99.90;;;;;;5102717;28;20036;-54
2023/02/14 08:37:58;;;;;;;21.48;15.23;;;7.40;99.90;;;;;;5115428;28;20035;-55
2023/02/14 08:40:24;;;;;;;18.85;12.30;;;7.40;99.90;;;;;;5094331;28;20039;-56
2023/02/14 08:42:50;;;;;;;19.15;14.93;;;7.40;99.90;;;;;;5113221;28;20024;-55
2023/02/14 08:45:16;;;;;;;21.10;13.35;;;7.50;99.90;;;;;;5113375;28;20019;-54
2023/02/14 08:47:41;;;;;;;18.27;13.88;;;7.60;99.90;;;;;;5113251;28;20020;-55
2023/02/14 08:50:10;;;;;;;16.83;11.65;;;7.60;99.90;;;;;;5113338;28;20028;-56
2023/02/14 08:52:38;;;;;;;18.50;13.05;;;7.50;99.90;;;;;;5115284;28;20484;-54
2023/02/14 08:55:05;;;;;;;18.65;12.98;;;7.40;99.90;;;;;;5117151;28;20030;-54
2023/02/14 08:57:30;;;;;;;16.35;11.93;;;7.50;99.90;;;;;;5114832;28;20100;-57
2023/02/14 08:59:56;;;;;;;25.90;16.88;;;7.50;99.90;;;;;;5117316;28;20472;-54
2023/02/14 09:02:22;;;;;;;18.17;13.50;;;7.60;99.90;;;;;;5117211;27;20059;-55
2023/02/14 09:04:48;;;;;;;22.00;13.48;;;7.50;99.90;;;;;;5137020;27;20039;-54
2023/02/14 09:07:14;;;;;;;19.67;14.73;;;7.50;99.90;;;;;;5136317;27;20139;-55
2023/02/14 09:09:40;;;;;;;17.80;11.95;;;7.50;99.90;;;;;;5130587;27;20104;-57
2023/02/14 09:12:07;;;;;;;22.20;15.82;;;7.50;99.90;;;;;;5126726;27;20030;-54
2023/02/14 09:14:38;;;;;;;25.75;17.38;;;7.50;99.90;;;;;;5131531;27;20360;-55
2023/02/14 09:17:04;;;;;;;30.65;16.75;;;7.50;99.90;;;;;;5101664;27;20394;-57
2023/02/14 09:19:34;;;;;;;19.98;14.32;;;7.50;99.90;;;;;;5137358;27;20023;-54
2023/02/14 09:22:02;;;;;;;18.52;12.30;;;7.60;99.90;;;;;;5137078;27;20548;-55
2023/02/14 09:24:32;;;;;;;18.55;13.20;;;7.60;99.90;;;;;;5136717;27;20031;-54
2023/02/14 09:26:58;;;;;;;22.25;12.80;;;7.60;99.90;;;;;;5136883;27;20031;-55
2023/02/14 09:29:25;;;;;;;18.17;11.68;;;7.50;99.90;;;;;;5135827;27;20031;-55
2023/02/14 09:31:56;;;;;;;19.40;13.82;;;7.60;99.90;;;;;;5135606;27;20027;-58
2023/02/14 09:34:23;;;;;;;18.40;13.80;;;7.60;99.90;;;;;;5136636;27;20027;-57
2023/02/14 09:39:32;;;;;;;16.85;12.63;;;7.60;99.90;;;;;;5136401;27;20031;-58
2023/02/14 09:42:17;;;;;;;18.15;12.57;;;7.60;99.90;;;;;;5136443;27;20027;-55
2023/02/14 09:44:47;;;;;;;15.93;11.13;;;7.50;99.90;;;;;;5136215;27;20035;-57
2023/02/14 09:47:31;;;;;;;12.80;7.90;;;7.50;99.90;;;;;;5101377;27;20039;-55
2023/02/14 09:49:58;;;;;;;21.85;14.57;;;7.40;99.90;;;;;;5136502;27;20136;-58
2023/02/14 09:52:28;;;;;;;21.52;12.43;;;7.50;99.90;;;;;;5136289;27;20087;-56
2023/02/14 09:55:00;;;;;;;14.93;8.98;;;7.40;99.90;;;;;;5136497;27;20037;-55
2023/02/14 09:57:37;;;;;;;17.90;11.38;;;7.40;99.90;;;;;;5136317;27;20049;-53
2023/02/14 10:00:24;;;;;;;19.40;12.60;;;7.40;99.90;;;;;;5136097;27;20179;-55
2023/02/14 10:03:07;;;;;;;22.77;13.57;;;7.50;99.90;;;;;;5136178;27;20030;-54
2023/02/14 10:05:44;;;;;;;16.40;12.52;;;7.40;99.90;;;;;;5135541;27;20031;-54
2023/02/14 10:08:31;;;;;;;20.58;11.93;;;7.40;99.90;;;;;;5116339;27;20120;-52
2023/02/14 10:11:07;;;;;;;23.88;16.45;;;7.40;99.90;;;;;;5115571;28;20071;-54
2023/02/14 10:13:49;;;;;;;20.27;13.07;;;7.60;99.90;;;;;;5115229;28;20039;-55
2023/02/14 10:16:17;;;;;;;16.58;10.48;;;7.60;99.90;;;;;;5115359;28;20471;-55
2023/02/14 10:18:51;;;;;;;17.73;12.73;;;;;;;;;;5115380;28;20032;-53
2023/02/14 10:21:26;;;;;;;23.40;16.02;;;7.70;99.90;;;;;;5115527;28;20028;-55
2023/02/14 10:24:17;;;;;;;19.15;13.70;;;7.80;99.90;;;;;;5115119;28;20065;-54
2023/02/14 10:26:46;;;;;;;15.25;8.18;;;8.10;99.90;;;;;;5072148;28;20192;-53
2023/02/14 10:29:16;;;;;;;25.25;16.33;;;7.90;99.90;;;;;;5072242;28;20098;-53
2023/02/14 10:32:01;;;;;;;16.73;12.13;;;7.90;99.90;;;;;;5058499;28;20048;-54
2023/02/14 10:34:47;;;;;;;18.35;12.88;;;8.00;99.90;;;;;;5092326;28;20112;-53
2023/02/14 10:37:21;;;;;;;16.65;12.02;;;8.00;99.90;;;;;;5092343;28;20040;-51
2023/02/14 10:39:52;;;;;;;21.85;12.63;;;8.00;99.90;;;;;;5092308;28;20115;-54
2023/02/14 10:42:30;;;;;;;14.88;11.43;;;8.00;99.90;;;;;;5092115;28;20081;-53
2023/02/14 10:44:58;;;;;;;18.42;12.60;;;8.00;99.90;;;;;;5075101;28;20186;-55
2023/02/14 10:47:56;;;;;;;19.60;13.25;;;8.10;99.90;;;;;;5092240;28;20036;-52
2023/02/14 10:50:47;;;;;;;18.85;13.63;;;8.10;99.90;;;;;;5092066;28;20550;-54
2023/02/14 10:53:40;;;;;;;20.95;13.10;;;8.20;99.90;;;;;;5056597;28;20048;-54
2023/02/14 10:56:20;;;;;;;21.58;13.30;;;8.10;99.90;;;;;;5074943;28;20040;-51
2023/02/14 10:58:47;;;;;;;18.88;13.60;;;8.00;99.90;;;;;;5053850;28;20028;-53
2023/02/14 11:01:16;;;;;;;16.02;11.85;;;8.20;99.90;;;;;;5092066;28;20503;-55
2023/02/14 11:04:02;;;;;;;21.02;12.98;;;8.30;99.90;;;;;;5103273;28;20067;-55
2023/02/14 11:06:32;;;;;;;28.15;17.25;;;8.30;99.90;;;;;;5114385;27;20032;-54
2023/02/14 11:08:58;;;;;;;52.00;33.40;;;8.20;99.90;;;;;;5114176;28;20043;-54
2023/02/14 11:11:32;;;;;;;22.80;13.80;;;8.40;99.90;;;;;;5078444;28;20134;-53
2023/02/14 11:13:58;;;;;;;42.35;26.00;;;8.40;99.90;;;;;;5114796;28;20077;-54
2023/02/14 11:16:35;;;;;;;21.70;14.00;;;8.30;99.90;;;;;;5113751;28;20060;-54
2023/02/14 11:19:19;;;;;;;19.45;13.00;;;8.40;99.90;;;;;;5114136;28;20028;-51
2023/02/14 11:21:47;;;;;;;39.40;21.83;;;8.40;99.90;;;;;;5112181;28;20066;-51
2023/02/14 11:24:26;;;;;;;19.95;14.73;;;8.30;99.90;;;;;;5114332;28;20032;-54
2023/02/14 11:26:56;;;;;;;25.88;17.83;;;8.40;99.90;;;;;;5113847;28;20493;-54
2023/02/14 11:30:02;;;;;;;18.70;13.50;;;8.50;99.90;;;;;;5113538;28;20040;-53
2023/02/14 11:32:33;;;;;;;24.85;15.48;;;8.60;99.90;;;;;;5113901;28;20067;-57
2023/02/14 11:35:04;;;;;;;19.60;11.85;;;8.70;99.90;;;;;;5114976;28;20055;-53
2023/02/14 11:37:41;;;;;;;16.58;11.88;;;8.70;99.90;;;;;;5114843;28;20040;-51
2023/02/14 11:40:28;;;;;;;16.40;12.48;;;8.80;99.90;;;;;;5115640;28;20044;-53
2023/02/14 11:42:57;;;;;;;15.43;12.35;;;8.90;99.90;;;;;;5114489;28;20028;-51
2023/02/14 11:45:58;;;;;;;22.15;15.73;;;8.90;99.90;;;;;;5116957;28;20058;-53
2023/02/14 11:48:26;;;;;;;45.90;28.67;;;8.90;99.90;;;;;;5109099;28;20059;-57
2023/02/14 11:51:12;;;;;;;27.90;18.00;;;8.80;99.90;;;;;;5113142;28;20047;-53
2023/02/14 11:53:55;;;;;;;19.65;14.18;;;8.90;99.90;;;;;;5113170;28;20043;-53
2023/02/14 11:56:23;;;;;;;20.50;14.05;;;9.00;99.90;;;;;;5096230;28;20069;-52
2023/02/14 11:58:54;;;;;;;23.27;17.73;;;;;;;;;;5112255;28;20411;-54
2023/02/14 12:01:32;;;;;;;18.88;13.65;;;9.30;99.90;;;;;;5111551;28;20043;-51
2023/02/14 12:04:03;;;;;;;30.10;23.90;;;9.30;99.90;;;;;;5111372;28;20144;-53
2023/02/14 12:06:32;;;;;;;16.27;9.77;;;9.20;99.90;;;;;;5077691;28;20534;-53
2023/02/14 12:09:23;;;;;;;13.35;8.75;;;8.90;99.90;;;;;;5111638;28;20039;-54
2023/02/14 12:12:03;;;;;;;20.65;13.88;;;8.80;99.90;;;;;;5113748;28;20435;-52
2023/02/14 12:14:31;;;;;;;26.20;17.50;;;9.00;99.90;;;;;;5113521;28;20042;-53
2023/02/14 12:17:31;;;;;;;21.13;13.88;;;9.20;99.90;;;;;;5113598;28;20462;-52
2023/02/14 12:20:22;;;;;;;21.92;13.40;;;9.10;99.90;;;;;;5070646;28;20462;-53
2023/02/14 12:22:59;;;;;;;18.00;12.75;;;9.10;99.90;;;;;;5070744;28;20038;-51
2023/02/14 12:25:37;;;;;;;19.55;11.90;;;9.00;99.90;;;;;;5070729;28;20033;-53
2023/02/14 12:28:08;;;;;;;11.10;7.90;;;9.00;99.90;;;;;;5074739;28;20042;-52
2023/02/14 12:30:34;;;;;;;25.00;15.07;;;8.90;99.90;;;;;;5074687;28;20048;-52
2023/02/14 12:33:01;;;;;;;23.77;15.32;;;8.90;99.90;;;;;;5069671;28;20615;-53
2023/02/14 12:35:54;;;;;;;21.38;15.27;;;9.20;99.90;;;;;;5004821;28;20033;-50
2023/02/14 12:38:22;;;;;;;20.50;11.63;;;9.20;99.90;;;;;;5069370;28;20083;-53
2023/02/14 12:41:05;;;;;;;15.63;10.93;;;9.20;99.90;;;;;;5074568;28;20062;-54
2023/02/14 12:43:41;;;;;;;19.30;12.57;;;9.10;99.90;;;;;;5074322;28;20140;-51
2023/02/14 12:46:30;;;;;;;15.43;12.10;;;9.30;99.90;;;;;;5074242;28;20044;-51
2023/02/14 12:49:30;;;;;;;14.00;9.93;;;9.30;99.90;;;;;;5064831;28;20060;-51
2023/02/14 12:52:13;;;;;;;18.48;12.75;;;9.00;99.90;;;;;;5074220;28;20025;-53
2023/02/14 12:54:58;;;;;;;17.08;9.13;;;9.00;99.90;;;;;;5074234;28;20067;-50
2023/02/14 12:57:41;;;;;;;8.82;6.63;;;9.00;99.90;;;;;;5113848;28;20092;-52
2023/02/14 13:00:17;;;;;;;16.38;10.73;;;8.80;99.90;;;;;;5130144;27;20054;-54
2023/02/14 13:02:57;;;;;;;16.27;9.85;;;8.90;99.90;;;;;;5137420;27;20053;-51
2023/02/14 13:05:23;;;;;;;16.00;11.32;;;8.80;99.90;;;;;;5094000;28;20040;-51
2023/02/14 13:08:04;;;;;;;17.63;12.18;;;8.90;99.90;;;;;;5093990;28;20572;-51
2023/02/14 13:10:36;;;;;;;17.38;11.40;;;9.00;99.90;;;;;;5094111;28;20499;-52
2023/02/14 13:13:26;;;;;;;12.35;6.88;;;8.80;99.90;;;;;;5093989;28;20036;-51
2023/02/14 13:16:03;;;;;;;15.18;10.68;;;8.90;99.90;;;;;;5093909;28;20131;-53
2023/02/14 13:18:42;;;;;;;15.82;9.85;;;8.80;99.90;;;;;;5093947;28;20051;-53